Saratoga Center, Illinois
Current Conditions -  °F | °C
As of 3:35 PM on Wednesday 17 Dec 2014 (Local Time) from KC75 Reporting Station
Overcast Overcast  
Wind Chill: 19°   Ceiling: 2500
Heat Index: 28°   Visibility: 10mi
Dew Point: 18°   Wind: 8mph
Humidity: 68%   Direction: 290°WNW
Pressure: 30.27"   Gusts: NA
Location:  41.1083°N, 89.4425°W
Report Text: KC75 172135Z AUTO 29007KT 10SM OVC025 M02/M08 A3027 RMK AO2 T10251077
Loading
Personal Weather Stations






























Interactive Weather Map New forecast layout! Learn more

10-Day Weather Forecast

Advertisements
Track Severe Weather on mobile